OIGG  Sardar-e-Jangal  Airport

Rasht, Iran

Add Bookmark
ICAO OIGG
IATA RAS
Type Airport
Status Operational
Latitude
37° 19' 23" N
37.323333
Longitude
49° 37' 4" E
49.617778
Local (GMT +3.5 ) UTC
Dec 7, 2016 05:54 pm Dec 7, 2016 14:24
Sunrise-Sunset Local UTC
Begin Civil Twilight 06:42 am 03:12
Sunrise 07:11 am 03:41
Sunset 04:55 pm 13:25
End Civil Twilight 05:24 pm 13:54
VFR
VFR
MVFR
MVFR
IFR
IFR
LIFR
LIFR
Unknown
No Data

Current Weather

METAR Observed VFR
OIGG 071400Z 30004KT CAVOK 07/03 Q1019 Wed, Dec 7, 2016 @ 14:00 UTC
(24 Minutes ago)
Visual Flight Rules
Wind Visibility Conditions
300° at 4 knots (7 kph) 10 km or more
  • No significant weather
Temperatures Readings Precipitation
Current Temp
7°C
45°F
Dewpoint
3°C
37°F
Humidity 76%
Altimeter 30.09" Hg
Sea Level Pressure 1,019 mb
None Recorded
-
-

CheckWX.com is intended as a tool to help pilots better visualize weather data. It is not intended as a substitute for an official weather briefing obtained from a Flight Service Station. CheckWX.com does not meet the FAA requirements for an official pre-flight weather briefing. Therefore, it's important that pilots still call and obtain an official FSS pre-flight weather briefing.

© 2007-2016 CheckWX.com
14:24:34 UTC